Hovedside
METAR-TAF:

METAR-TAF

Lufthavner :

Kajana, Finland

Kajana lufthavn

breddegrad: 64-17N, lengdegrad: 027-41E, høyde over havet: 143 m

Gjeldene værobservasjon

Denne rapporten ble laget for 37 minutter siden, klokken 13:50 UTC
Vind 12 kt fra Øst
Temperatur -6°C
Luftfuktighet 86%
Trykk 1020 hPa
Sikt 10 km eller mer
Brutte skyer i en høyde av 1000 ft

METAR: EFKI 221350Z AUTO 08012KT 9999 BKN010 M06/M08 Q1020

Tid: 16:27 (14:27 UTC)

Varsel

Denne rapporten ble laget for 2 timer og 56 minutter siden, klokken 11:31 UTC
Varsel gyldig fra 22. klokken 12 UTC til 22. klokken 21 UTC
Vind 9 kt fra Øst
Sikt 10 km eller mer
Spredte skyer i en høyde av 800 ft
Brutte skyer i en høyde av 1500 ft
Midlertidig
fra 22. klokken 12 UTC til 22. klokken 21 UTC
Sikt: 7000 m
Brutte skyer i en høyde av 800 ft
(lett) kornsnø

TAF: EFKI 221131Z 2212/2221 09009KT 9999 SCT008 BKN015 TEMPO 2212/2221 7000 -SG BKN008

Værobservasjoner og værvarsel for over 4000 flyplasser (METAR- og TAF-rapporter).

Tilgjengelige stasjoner er representert av de røde og gule prikkene på kartet.

Hold musepekeren over prikken for å se navnet på stasjonen.

Klikk så for å se værobservasjoner og -varsler.

For å forandre kartet kan du klikke på den grønne knappen med svart kryss for å zoome inn, på den grønne knappen med strek for å zoome ut, eller på de grønne pilene for å se tilstøtende kart.


METAR-TAF: